KDCA/DCA METAR and TAF weather

Enter ICAO airport designator
Station Type Date Time Source
KDCA METAR 2019/06/26 21:52 UTC NOAA

KDCA 262152Z 28005KT 10SM SCT075 BKN250 33/16 A3004 RMK AO2 SLP173 T03280156


Station Type Date Time Source
KDCA Decoded METAR 2019/06/26 21:52 UTC NOAA

WASHINGTON NATIONAL AIRPORT , VA, United States (KDCA) 38-51N 077-02W 18M
Jun 26, 2019 - 05:52 PM EDT / 2019.06.26 2152 UTC
Wind: from the W (280 degrees) at 6 MPH (5 KT):0
Visibility: 10 mile(s):0
Sky conditions: mostly cloudy
Temperature: 91.0 F (32.8 C)
Dew Point: 60.1 F (15.6 C)
Relative Humidity: 35%
Pressure (altimeter): 30.04 in. Hg (1017 hPa)
ob: KDCA 262152Z 28005KT 10SM SCT075 BKN250 33/16 A3004 RMK AO2 SLP173 T03280156
cycle: 22

Station Type Date Time Source
KDCA TAF 2019/06/26 21:39 UTC NOAA

TAF
AMD KDCA 262037Z 2621/2724 28005G14KT P6SM FEW060
FM270000 24006KT P6SM FEW250
FM271800 31005KT P6SM FEW070

Example: see airport list